createdAt,value
2018-06-28T00:00:02.926Z,78.61
2018-06-28T00:01:03.158Z,78.19
2018-06-28T00:02:03.387Z,78.95
2018-06-28T00:03:03.617Z,78.86
2018-06-28T00:04:03.850Z,78.66
2018-06-28T00:05:04.074Z,78.38
2018-06-28T00:06:04.304Z,78.38
2018-06-28T00:07:04.533Z,78.95
2018-06-28T00:08:04.771Z,78.47
2018-06-28T00:09:05.001Z,79.33
2018-06-28T00:10:05.237Z,79.05
2018-06-28T00:11:05.454Z,79.24
2018-06-28T00:12:05.691Z,79.24
2018-06-28T00:13:05.917Z,79.33
2018-06-28T00:14:06.147Z,79.33
2018-06-28T00:15:06.377Z,79.33
2018-06-28T00:16:06.602Z,79.43
2018-06-28T00:17:06.836Z,79.62
2018-06-28T00:18:07.063Z,80.19
2018-06-28T00:19:07.294Z,80.19
2018-06-28T00:20:07.525Z,80.00
2018-06-28T00:21:07.760Z,80.77
2018-06-28T00:22:07.981Z,80.29
2018-06-28T00:23:08.212Z,80.38
2018-06-28T00:24:08.441Z,80.29
2018-06-28T00:25:08.668Z,80.38
2018-06-28T00:26:08.895Z,80.00
2018-06-28T00:27:09.131Z,80.29
2018-06-28T00:28:09.356Z,80.54
2018-06-28T00:29:09.580Z,80.48
2018-06-28T00:30:09.808Z,80.44
2018-06-28T00:31:10.038Z,80.19
2018-06-28T00:32:10.321Z,80.38
2018-06-28T00:33:10.502Z,80.35
2018-06-28T00:34:10.721Z,80.48
2018-06-28T00:35:10.949Z,80.25
2018-06-28T00:36:11.179Z,80.25
2018-06-28T00:37:11.405Z,80.25
2018-06-28T00:38:11.637Z,80.73
2018-06-28T00:39:11.879Z,80.63
2018-06-28T00:40:12.091Z,80.92
2018-06-28T00:41:12.319Z,80.73
2018-06-28T00:42:12.550Z,80.63
2018-06-28T00:43:12.777Z,81.11
2018-06-28T00:44:13.007Z,81.30
2018-06-28T00:45:13.235Z,81.21
2018-06-28T00:46:13.461Z,81.40
2018-06-28T00:47:13.691Z,81.11
2018-06-28T00:48:13.921Z,81.88
2018-06-28T00:49:14.149Z,81.68
2018-06-28T00:50:14.378Z,82.07
2018-06-28T00:51:14.610Z,82.17
2018-06-28T00:52:14.842Z,82.45
2018-06-28T00:53:15.071Z,82.03
2018-06-28T00:54:15.302Z,82.35
2018-06-28T00:55:15.533Z,82.35
2018-06-28T00:56:15.768Z,82.17
2018-06-28T00:57:15.990Z,82.07
2018-06-28T00:58:16.227Z,82.17
2018-06-28T00:59:16.452Z,82.17
2018-06-28T01:00:16.678Z,82.64
2018-06-28T01:01:16.908Z,82.35
2018-06-28T01:02:17.137Z,82.74
2018-06-28T01:03:17.366Z,82.60
2018-06-28T01:04:17.597Z,82.41
2018-06-28T01:05:17.824Z,82.89
2018-06-28T01:06:18.055Z,83.46
2018-06-28T01:07:18.285Z,82.79
2018-06-28T01:08:18.512Z,82.22
2018-06-28T01:09:18.743Z,82.31
2018-06-28T01:10:18.975Z,82.51
2018-06-28T01:11:19.202Z,83.17
2018-06-28T01:12:19.431Z,82.89
2018-06-28T01:13:19.667Z,83.17
2018-06-28T01:14:19.890Z,83.17
2018-06-28T01:15:20.116Z,83.17
2018-06-28T01:16:20.344Z,82.70
2018-06-28T01:17:20.574Z,83.37
2018-06-28T01:18:20.803Z,83.37
2018-06-28T01:19:21.036Z,83.56
2018-06-28T01:20:21.259Z,83.46
2018-06-28T01:21:21.488Z,83.46
2018-06-28T01:22:21.716Z,83.17
2018-06-28T01:23:21.945Z,82.22
2018-06-28T01:24:22.177Z,82.51
2018-06-28T01:25:22.408Z,83.46
2018-06-28T01:26:22.635Z,82.79
2018-06-28T01:27:22.862Z,83.17
2018-06-28T01:28:23.092Z,83.27
2018-06-28T01:29:23.320Z,84.09
2018-06-28T01:30:23.550Z,84.09
2018-06-28T01:31:23.776Z,84.66
2018-06-28T01:32:24.003Z,84.56
2018-06-28T01:33:24.231Z,84.38
2018-06-28T01:34:24.464Z,84.85
2018-06-28T01:35:24.763Z,85.42
2018-06-28T01:36:24.929Z,85.14
2018-06-28T01:37:25.157Z,84.95
2018-06-28T01:38:25.386Z,85.05
2018-06-28T01:39:25.615Z,85.90
2018-06-28T01:40:25.843Z,85.62
2018-06-28T01:41:26.071Z,85.33
2018-06-28T01:42:26.297Z,85.81
2018-06-28T01:43:26.527Z,85.62
2018-06-28T01:44:26.755Z,85.42
2018-06-28T01:45:26.985Z,85.52
2018-06-28T01:46:27.212Z,85.42
2018-06-28T01:47:27.442Z,85.52
2018-06-28T01:48:27.704Z,85.05
2018-06-28T01:49:27.904Z,85.90
2018-06-28T01:50:28.133Z,86.57
2018-06-28T01:51:28.363Z,86.38
2018-06-28T01:52:28.599Z,86.57
2018-06-28T01:53:28.825Z,85.62
2018-06-28T01:54:29.056Z,85.52
2018-06-28T01:55:29.285Z,85.62
2018-06-28T01:56:29.515Z,85.71
2018-06-28T01:57:29.744Z,85.71
2018-06-28T01:58:29.975Z,85.62
2018-06-28T01:59:30.201Z,85.71
2018-06-28T02:00:30.431Z,85.81
2018-06-28T02:01:30.663Z,86.47
2018-06-28T02:02:30.891Z,86.24
2018-06-28T02:03:31.121Z,86.53
2018-06-28T02:04:31.352Z,86.38
2018-06-28T02:05:31.580Z,86.67
2018-06-28T02:06:31.809Z,86.96
2018-06-28T02:07:32.039Z,86.47
2018-06-28T02:08:32.267Z,86.67
2018-06-28T02:09:32.498Z,86.67
2018-06-28T02:10:32.729Z,86.29
2018-06-28T02:11:32.952Z,86.63
2018-06-28T02:12:33.186Z,86.96
2018-06-28T02:13:33.413Z,86.57
2018-06-28T02:14:33.642Z,86.57
2018-06-28T02:15:33.870Z,86.29
2018-06-28T02:16:34.100Z,86.29
2018-06-28T02:17:34.332Z,86.47
2018-06-28T02:18:34.565Z,86.38
2018-06-28T02:19:34.793Z,86.67
2018-06-28T02:20:35.027Z,86.38
2018-06-28T02:21:35.258Z,86.53
2018-06-28T02:22:35.483Z,86.43
2018-06-28T02:23:35.725Z,87.77
2018-06-28T02:24:35.943Z,87.58
2018-06-28T02:25:36.173Z,87.29
2018-06-28T02:26:36.402Z,87.58
2018-06-28T02:27:36.632Z,87.68
2018-06-28T02:28:36.859Z,87.20
2018-06-28T02:29:37.088Z,87.58
2018-06-28T02:30:37.317Z,87.20
2018-06-28T02:31:37.546Z,88.25
2018-06-28T02:32:37.775Z,88.06
2018-06-28T02:33:38.004Z,88.34
2018-06-28T02:34:38.232Z,88.25
2018-06-28T02:35:38.470Z,88.15
2018-06-28T02:36:38.693Z,88.25
2018-06-28T02:37:38.923Z,88.63
2018-06-28T02:38:39.151Z,88.73
2018-06-28T02:39:39.383Z,89.01
2018-06-28T02:40:39.624Z,88.92
2018-06-28T02:41:39.846Z,88.73
2018-06-28T02:42:40.075Z,89.30
2018-06-28T02:43:40.300Z,89.01
2018-06-28T02:44:40.528Z,88.92
2018-06-28T02:45:40.754Z,89.11
2018-06-28T02:46:40.984Z,89.11
2018-06-28T02:47:41.216Z,89.01
2018-06-28T02:48:41.439Z,88.25
2018-06-28T02:49:41.669Z,88.54
2018-06-28T02:50:41.897Z,88.06
2018-06-28T02:51:42.128Z,88.25
2018-06-28T02:52:42.358Z,88.15
2018-06-28T02:53:42.586Z,87.77
2018-06-28T02:54:42.815Z,87.96
2018-06-28T02:55:43.049Z,87.29
2018-06-28T02:56:43.282Z,87.39
2018-06-28T02:57:43.510Z,87.48
2018-06-28T02:58:43.741Z,87.39
2018-06-28T02:59:43.969Z,87.39
2018-06-28T03:00:44.198Z,87.77
2018-06-28T03:01:44.429Z,87.77
2018-06-28T03:02:44.658Z,87.77
2018-06-28T03:03:44.885Z,88.15
2018-06-28T03:04:45.115Z,87.77
2018-06-28T03:05:45.346Z,87.96
2018-06-28T03:06:45.576Z,88.34
2018-06-28T03:07:45.801Z,88.34
2018-06-28T03:08:46.031Z,88.25
2018-06-28T03:09:46.260Z,88.73
2018-06-28T03:10:46.494Z,89.01
2018-06-28T03:11:46.720Z,89.16
2018-06-28T03:12:46.950Z,89.54
2018-06-28T03:13:47.181Z,89.30
2018-06-28T03:14:47.410Z,89.30
2018-06-28T03:15:47.640Z,89.49
2018-06-28T03:16:47.869Z,89.11
2018-06-28T03:17:48.099Z,88.92
2018-06-28T03:18:48.326Z,89.01
2018-06-28T03:19:48.556Z,89.11
2018-06-28T03:20:48.784Z,89.11
2018-06-28T03:21:49.015Z,89.11
2018-06-28T03:22:49.242Z,88.92
2018-06-28T03:23:49.469Z,88.34
2018-06-28T03:24:49.700Z,88.92
2018-06-28T03:25:49.929Z,88.73
2018-06-28T03:26:50.163Z,89.01
2018-06-28T03:27:50.388Z,89.54
2018-06-28T03:28:50.617Z,90.11
2018-06-28T03:29:50.845Z,90.02
2018-06-28T03:30:51.110Z,89.92
2018-06-28T03:31:51.314Z,90.21
2018-06-28T03:32:51.532Z,90.11
2018-06-28T03:33:51.761Z,89.83
2018-06-28T03:34:51.994Z,90.25
2018-06-28T03:35:52.223Z,90.06
2018-06-28T03:36:52.451Z,89.20
2018-06-28T03:37:52.759Z,89.39
2018-06-28T03:38:52.921Z,89.30
2018-06-28T03:39:53.149Z,89.59
2018-06-28T03:40:53.383Z,89.68
2018-06-28T03:41:53.608Z,89.11
2018-06-28T03:42:53.839Z,88.54
2018-06-28T03:43:54.069Z,88.82
2018-06-28T03:44:54.301Z,88.73
2018-06-28T03:45:54.550Z,88.82
2018-06-28T03:46:54.757Z,88.63
2018-06-28T03:47:54.989Z,88.63
2018-06-28T03:48:55.216Z,88.63
2018-06-28T03:49:55.451Z,87.82
2018-06-28T03:50:55.672Z,87.43
2018-06-28T03:51:55.900Z,87.15
2018-06-28T03:52:56.129Z,85.38
2018-06-28T03:53:56.359Z,84.84
2018-06-28T03:54:56.589Z,84.36
2018-06-28T03:55:56.819Z,82.68
2018-06-28T03:56:57.048Z,81.29
2018-06-28T03:57:57.283Z,80.85
2018-06-28T03:58:57.510Z,79.16
2018-06-28T03:59:57.740Z,76.77
2018-06-28T04:00:57.970Z,75.75
2018-06-28T04:01:58.199Z,75.31
2018-06-28T04:02:58.432Z,73.24
2018-06-28T04:03:58.661Z,71.61
2018-06-28T04:04:58.894Z,71.55
2018-06-28T04:05:59.126Z,69.66
2018-06-28T04:06:59.356Z,67.48
2018-06-28T04:07:59.598Z,66.65
2018-06-28T04:08:59.812Z,65.78
2018-06-28T04:10:00.042Z,64.92
2018-06-28T04:11:00.273Z,64.34
2018-06-28T04:12:00.503Z,64.05
2018-06-28T04:13:00.743Z,64.95
2018-06-28T04:14:00.972Z,64.25
2018-06-28T04:15:01.203Z,63.95
2018-06-28T04:16:01.435Z,63.95
2018-06-28T04:17:01.670Z,64.73
2018-06-28T04:18:01.904Z,64.15
2018-06-28T04:19:02.136Z,63.95
2018-06-28T04:20:02.368Z,63.95
2018-06-28T04:21:02.605Z,63.12
2018-06-28T04:22:02.839Z,63.22
2018-06-28T04:23:03.078Z,62.67
2018-06-28T04:24:03.314Z,62.93
2018-06-28T04:25:03.544Z,62.64
2018-06-28T04:26:03.777Z,63.02
2018-06-28T04:27:04.009Z,63.02
2018-06-28T04:28:04.242Z,64.25
2018-06-28T04:29:04.478Z,64.79
2018-06-28T04:30:04.712Z,65.94
2018-06-28T04:31:04.946Z,66.00
2018-06-28T04:32:05.180Z,66.97
2018-06-28T04:33:05.414Z,65.94
2018-06-28T04:34:05.648Z,65.91
2018-06-28T04:35:05.882Z,67.00
2018-06-28T04:36:06.117Z,65.40
2018-06-28T04:37:06.352Z,63.57
2018-06-28T04:38:06.588Z,63.41
2018-06-28T04:39:06.822Z,62.74
2018-06-28T04:40:07.057Z,62.64
2018-06-28T04:41:07.423Z,61.90
2018-06-28T04:42:07.524Z,60.87
2018-06-28T04:43:07.763Z,60.30
2018-06-28T04:44:07.995Z,59.94
2018-06-28T04:45:08.232Z,58.81
2018-06-28T04:46:08.466Z,57.85
2018-06-28T04:47:08.703Z,57.65
2018-06-28T04:48:08.937Z,57.39
2018-06-28T04:49:09.175Z,57.10
2018-06-28T04:50:09.407Z,56.07
2018-06-28T04:51:09.635Z,54.94
2018-06-28T04:52:09.868Z,55.49
2018-06-28T04:53:10.106Z,55.23
2018-06-28T04:54:10.344Z,55.81
2018-06-28T04:55:10.573Z,54.17
2018-06-28T04:56:10.814Z,54.58
2018-06-28T04:57:11.049Z,53.71
2018-06-28T04:58:11.283Z,53.39
2018-06-28T04:59:11.521Z,54.17
2018-06-28T05:00:11.756Z,54.58
2018-06-28T05:01:12.009Z,54.07
2018-06-28T05:02:12.228Z,54.46
2018-06-28T05:03:12.463Z,55.30
2018-06-28T05:04:12.700Z,55.88
2018-06-28T05:05:12.936Z,56.98
2018-06-28T05:06:13.175Z,56.74
2018-06-28T05:07:13.411Z,55.04
2018-06-28T05:08:13.649Z,54.62
2018-06-28T05:09:13.886Z,53.91
2018-06-28T05:10:14.124Z,53.71
2018-06-28T05:11:14.360Z,53.83
2018-06-28T05:12:14.602Z,52.31
2018-06-28T05:13:14.838Z,50.98
2018-06-28T05:14:15.081Z,49.85
2018-06-28T05:15:15.313Z,48.64
2018-06-28T05:16:15.552Z,47.40
2018-06-28T05:17:15.793Z,47.20
2018-06-28T05:18:16.039Z,46.65
2018-06-28T05:19:16.269Z,46.26
2018-06-28T05:20:16.508Z,44.92
2018-06-28T05:21:16.744Z,44.56
2018-06-28T05:22:16.981Z,44.65
2018-06-28T05:23:17.226Z,44.56
2018-06-28T05:24:17.458Z,44.44
2018-06-28T05:25:17.697Z,44.92
2018-06-28T05:26:17.936Z,44.44
2018-06-28T05:27:18.173Z,44.46
2018-06-28T05:28:18.409Z,44.46
2018-06-28T05:29:18.731Z,44.75
2018-06-28T05:30:18.885Z,44.09
2018-06-28T05:31:19.122Z,43.71
2018-06-28T05:32:19.361Z,43.51
2018-06-28T05:33:19.602Z,43.49
2018-06-28T05:34:19.835Z,43.90
2018-06-28T05:35:20.076Z,43.88
2018-06-28T05:36:20.321Z,44.09
2018-06-28T05:37:20.557Z,42.95
2018-06-28T05:38:20.798Z,42.58
2018-06-28T05:39:21.038Z,41.34
2018-06-28T05:40:21.294Z,41.13
2018-06-28T05:41:21.527Z,41.77
2018-06-28T05:42:21.760Z,41.80
2018-06-28T05:43:22.004Z,41.10
2018-06-28T05:44:22.240Z,41.42
2018-06-28T05:45:22.481Z,42.18
2018-06-28T05:46:22.722Z,42.56
2018-06-28T05:47:22.962Z,41.51
2018-06-28T05:48:23.207Z,42.29
2018-06-28T05:49:23.446Z,43.68
2018-06-28T05:50:23.689Z,43.40
2018-06-28T05:51:23.929Z,43.78
2018-06-28T05:52:24.171Z,44.17
2018-06-28T05:53:24.410Z,44.09
2018-06-28T05:54:24.668Z,43.54
2018-06-28T05:55:24.892Z,43.15
2018-06-28T05:56:25.131Z,42.29
2018-06-28T05:57:25.372Z,42.02
2018-06-28T05:58:25.612Z,41.59
2018-06-28T05:59:25.847Z,42.74
2018-06-28T06:00:26.098Z,42.89
2018-06-28T06:01:26.384Z,44.24
2018-06-28T06:02:26.577Z,44.54
2018-06-28T06:03:26.817Z,45.51
2018-06-28T06:04:27.060Z,44.32
2018-06-28T06:05:27.300Z,44.32
2018-06-28T06:06:27.539Z,44.83
2018-06-28T06:07:27.779Z,44.73
2018-06-28T06:08:28.030Z,45.51
2018-06-28T06:09:28.256Z,45.29
2018-06-28T06:10:28.498Z,45.70
2018-06-28T06:11:28.737Z,45.17
2018-06-28T06:12:28.985Z,46.41
2018-06-28T06:13:29.218Z,47.20
2018-06-28T06:14:29.458Z,46.62
2018-06-28T06:15:29.697Z,46.70
2018-06-28T06:16:29.937Z,46.55
2018-06-28T06:17:30.173Z,46.45
2018-06-28T06:18:30.412Z,45.70
2018-06-28T06:19:30.657Z,44.90
2018-06-28T06:20:30.893Z,46.33
2018-06-28T06:21:31.131Z,46.36
2018-06-28T06:22:31.372Z,46.60
2018-06-28T06:23:31.612Z,47.67
2018-06-28T06:24:31.852Z,47.60
2018-06-28T06:25:32.092Z,47.69
2018-06-28T06:26:32.332Z,46.84
2018-06-28T06:27:32.571Z,46.67
2018-06-28T06:28:32.811Z,45.39
2018-06-28T06:29:33.077Z,45.87
2018-06-28T06:30:33.291Z,45.89
2018-06-28T06:31:33.529Z,46.36
2018-06-28T06:32:33.771Z,47.40
2018-06-28T06:33:34.011Z,47.30
2018-06-28T06:34:34.255Z,47.03
2018-06-28T06:35:34.490Z,45.72
2018-06-28T06:36:34.726Z,45.43
2018-06-28T06:37:34.980Z,44.38
2018-06-28T06:38:35.207Z,44.09
2018-06-28T06:39:35.443Z,43.78
2018-06-28T06:40:35.686Z,44.37
2018-06-28T06:41:35.919Z,45.51
2018-06-28T06:42:36.164Z,45.89
2018-06-28T06:43:36.400Z,46.28
2018-06-28T06:44:36.640Z,46.72
2018-06-28T06:45:36.879Z,47.19
2018-06-28T06:46:37.120Z,47.50
2018-06-28T06:47:37.358Z,47.62
2018-06-28T06:48:37.615Z,47.79
2018-06-28T06:49:37.836Z,47.20
2018-06-28T06:50:38.078Z,46.84
2018-06-28T06:51:38.317Z,46.53
2018-06-28T06:52:38.563Z,47.62
2018-06-28T06:53:38.787Z,47.13
2018-06-28T06:54:39.027Z,46.58
2018-06-28T06:55:39.269Z,46.48
2018-06-28T06:56:39.504Z,46.41
2018-06-28T06:57:39.751Z,46.69
2018-06-28T06:58:39.987Z,46.60
2018-06-28T06:59:40.225Z,46.60
2018-06-28T07:00:40.461Z,46.45
2018-06-28T07:01:40.700Z,47.40
2018-06-28T07:02:40.936Z,48.44
2018-06-28T07:03:41.182Z,48.93
2018-06-28T07:04:41.423Z,49.58
2018-06-28T07:05:41.654Z,50.52
2018-06-28T07:06:41.955Z,50.43
2018-06-28T07:07:42.133Z,50.62
2018-06-28T07:08:42.375Z,51.66
2018-06-28T07:09:42.614Z,52.34
2018-06-28T07:10:42.855Z,52.24
2018-06-28T07:11:43.197Z,52.73
2018-06-28T07:12:43.491Z,53.02
2018-06-28T07:13:43.567Z,52.92
2018-06-28T07:14:43.807Z,52.92
2018-06-28T07:15:44.040Z,53.47
2018-06-28T07:16:44.279Z,53.28
2018-06-28T07:17:44.513Z,54.44
2018-06-28T07:18:44.751Z,53.47
2018-06-28T07:19:44.986Z,54.63
2018-06-28T07:20:45.226Z,54.71
2018-06-28T07:21:45.462Z,56.10
2018-06-28T07:22:45.707Z,56.74
2018-06-28T07:23:45.933Z,57.52
2018-06-28T07:24:46.175Z,57.74
2018-06-28T07:25:46.412Z,57.74
2018-06-28T07:26:46.646Z,57.64
2018-06-28T07:27:46.886Z,57.71
2018-06-28T07:28:47.121Z,58.87
2018-06-28T07:29:47.357Z,58.68
2018-06-28T07:30:47.592Z,58.94
2018-06-28T07:31:47.828Z,58.94
2018-06-28T07:32:48.067Z,59.25
2018-06-28T07:33:48.302Z,58.87
2018-06-28T07:34:48.535Z,58.87
2018-06-28T07:35:48.771Z,59.93
2018-06-28T07:36:49.008Z,59.35
2018-06-28T07:37:49.244Z,59.83
2018-06-28T07:38:49.481Z,60.13
2018-06-28T07:39:49.716Z,59.74
2018-06-28T07:40:49.956Z,59.93
2018-06-28T07:41:50.187Z,59.93
2018-06-28T07:42:50.424Z,60.16
2018-06-28T07:43:50.660Z,59.58
2018-06-28T07:44:50.901Z,58.80
2018-06-28T07:45:51.140Z,58.90
2018-06-28T07:46:51.379Z,59.67
2018-06-28T07:47:51.611Z,59.00
2018-06-28T07:48:51.853Z,58.54
2018-06-28T07:49:52.086Z,59.31
2018-06-28T07:50:52.323Z,59.02
2018-06-28T07:51:52.554Z,58.35
2018-06-28T07:52:52.791Z,57.67
2018-06-28T07:53:53.025Z,58.54
2018-06-28T07:54:53.261Z,59.22
2018-06-28T07:55:53.502Z,58.73
2018-06-28T07:56:53.732Z,58.83
2018-06-28T07:57:53.968Z,58.93
2018-06-28T07:58:54.202Z,58.64
2018-06-28T07:59:54.438Z,58.93
2018-06-28T08:00:54.668Z,58.73
2018-06-28T08:01:54.909Z,58.76
2018-06-28T08:02:55.143Z,58.76
2018-06-28T08:03:55.382Z,58.37
2018-06-28T08:04:55.615Z,57.92
2018-06-28T08:05:55.854Z,57.54
2018-06-28T08:06:56.093Z,57.54
2018-06-28T08:07:56.389Z,57.44
2018-06-28T08:08:56.521Z,58.12
2018-06-28T08:09:56.766Z,57.70
2018-06-28T08:10:56.990Z,58.67
2018-06-28T08:11:57.228Z,58.86
2018-06-28T08:12:57.459Z,58.18
2018-06-28T08:13:57.693Z,58.67
2018-06-28T08:14:57.932Z,58.95
2018-06-28T08:15:58.165Z,59.25
2018-06-28T08:16:58.406Z,59.34
2018-06-28T08:17:58.643Z,59.08
2018-06-28T08:18:58.879Z,58.80
2018-06-28T08:19:59.116Z,58.89
2018-06-28T08:20:59.346Z,58.89
2018-06-28T08:21:59.584Z,59.08
2018-06-28T08:22:59.818Z,57.86
2018-06-28T08:24:00.054Z,57.56
2018-06-28T08:25:00.293Z,57.56
2018-06-28T08:26:00.528Z,57.01
2018-06-28T08:27:00.774Z,56.92
2018-06-28T08:28:01.001Z,57.79
2018-06-28T08:29:01.235Z,57.30
2018-06-28T08:30:01.472Z,56.43
2018-06-28T08:31:01.704Z,56.72
2018-06-28T08:32:01.937Z,56.24
2018-06-28T08:33:02.174Z,56.72
2018-06-28T08:34:02.409Z,57.01
2018-06-28T08:35:02.643Z,56.43
2018-06-28T08:36:02.913Z,57.23
2018-06-28T08:37:03.116Z,56.72
2018-06-28T08:38:03.354Z,57.01
2018-06-28T08:39:03.591Z,57.20
2018-06-28T08:40:03.828Z,56.98
2018-06-28T08:41:04.062Z,56.79
2018-06-28T08:42:04.310Z,57.44
2018-06-28T08:43:04.536Z,57.24
2018-06-28T08:44:04.771Z,57.73
2018-06-28T08:45:05.007Z,58.02
2018-06-28T08:46:05.244Z,58.34
2018-06-28T08:47:05.539Z,57.82
2018-06-28T08:48:05.713Z,58.21
2018-06-28T08:49:06.005Z,58.34
2018-06-28T08:50:06.187Z,57.82
2018-06-28T08:51:06.424Z,58.04
2018-06-28T08:52:06.662Z,57.46
2018-06-28T08:53:06.896Z,57.86
2018-06-28T08:54:07.132Z,57.76
2018-06-28T08:55:07.373Z,57.37
2018-06-28T08:56:07.608Z,57.66
2018-06-28T08:57:07.838Z,57.18
2018-06-28T08:58:08.077Z,57.20
2018-06-28T08:59:08.309Z,57.01
2018-06-28T09:00:08.545Z,56.56
2018-06-28T09:01:08.783Z,55.68
2018-06-28T09:02:09.023Z,55.88
2018-06-28T09:03:09.261Z,55.00
2018-06-28T09:04:09.496Z,55.32
2018-06-28T09:05:09.730Z,55.04
2018-06-28T09:06:09.968Z,55.04
2018-06-28T09:07:10.204Z,55.22
2018-06-28T09:08:10.438Z,53.61
2018-06-28T09:09:10.672Z,53.89
2018-06-28T09:10:10.909Z,53.58
2018-06-28T09:11:11.146Z,54.77
2018-06-28T09:12:11.389Z,53.61
2018-06-28T09:13:11.622Z,53.61
2018-06-28T09:14:11.859Z,52.66
2018-06-28T09:15:12.156Z,52.47
2018-06-28T09:16:12.331Z,52.18
2018-06-28T09:17:12.574Z,52.37
2018-06-28T09:18:12.805Z,52.18
2018-06-28T09:19:13.041Z,52.76
2018-06-28T09:20:13.279Z,53.63
2018-06-28T09:21:13.516Z,52.76
2018-06-28T09:22:13.753Z,52.95
2018-06-28T09:23:13.989Z,53.08
2018-06-28T09:24:14.227Z,52.78
2018-06-28T09:25:14.462Z,52.66
2018-06-28T09:26:14.699Z,52.98
2018-06-28T09:27:14.939Z,53.75
2018-06-28T09:28:15.175Z,53.08
2018-06-28T09:29:15.413Z,52.50
2018-06-28T09:30:15.648Z,52.66
2018-06-28T09:31:15.884Z,52.47
2018-06-28T09:32:16.117Z,53.47
2018-06-28T09:33:16.354Z,52.30
2018-06-28T09:34:16.586Z,52.30
2018-06-28T09:35:16.832Z,52.20
2018-06-28T09:36:17.067Z,52.62
2018-06-28T09:37:17.306Z,51.55
2018-06-28T09:38:17.540Z,51.93
2018-06-28T09:39:17.781Z,51.65
2018-06-28T09:40:18.018Z,52.23
2018-06-28T09:41:18.257Z,51.91
2018-06-28T09:42:18.495Z,52.01
2018-06-28T09:43:18.732Z,52.98
2018-06-28T09:44:18.970Z,52.33
2018-06-28T09:45:19.208Z,52.23
2018-06-28T09:46:19.445Z,51.14
2018-06-28T09:47:19.731Z,50.84
2018-06-28T09:48:19.967Z,51.14
2018-06-28T09:49:20.205Z,51.04
2018-06-28T09:50:20.453Z,51.06
2018-06-28T09:51:20.679Z,50.84
2018-06-28T09:52:20.924Z,51.16
2018-06-28T09:53:21.159Z,50.65
2018-06-28T09:54:21.397Z,50.65
2018-06-28T09:55:21.628Z,49.32
2018-06-28T09:56:21.866Z,49.32
2018-06-28T09:57:22.115Z,49.12
2018-06-28T09:58:22.346Z,49.80
2018-06-28T09:59:22.586Z,49.80
2018-06-28T10:00:22.893Z,49.22
2018-06-28T10:01:23.067Z,49.90
2018-06-28T10:02:23.308Z,50.48
2018-06-28T10:03:23.540Z,50.77
2018-06-28T10:04:23.777Z,49.22
2018-06-28T10:05:24.017Z,48.25
2018-06-28T10:06:24.255Z,48.25
2018-06-28T10:07:24.495Z,48.15
2018-06-28T10:08:24.730Z,48.05
2018-06-28T10:09:24.970Z,49.32
2018-06-28T10:10:25.204Z,49.51
2018-06-28T10:11:25.442Z,49.22
2018-06-28T10:12:25.682Z,47.96
2018-06-28T10:13:25.925Z,48.05
2018-06-28T10:14:26.157Z,48.35
2018-06-28T10:15:26.395Z,48.05
2018-06-28T10:16:26.628Z,47.66
2018-06-28T10:17:26.865Z,47.38
2018-06-28T10:18:27.099Z,47.18
2018-06-28T10:19:27.336Z,47.78
2018-06-28T10:20:27.574Z,47.49
2018-06-28T10:21:27.811Z,47.40
2018-06-28T10:22:28.047Z,47.57
2018-06-28T10:23:28.291Z,47.47
2018-06-28T10:24:28.532Z,47.11
2018-06-28T10:25:28.771Z,46.91
2018-06-28T10:26:29.005Z,46.42
2018-06-28T10:27:29.247Z,46.11
2018-06-28T10:28:29.480Z,46.60
2018-06-28T10:29:29.717Z,46.69
2018-06-28T10:30:29.956Z,46.79
2018-06-28T10:31:30.200Z,45.89
2018-06-28T10:32:30.442Z,46.28
2018-06-28T10:33:30.673Z,46.01
2018-06-28T10:34:30.913Z,46.31
2018-06-28T10:35:31.148Z,46.01
2018-06-28T10:36:32.238Z,45.92
2018-06-28T10:37:31.602Z,45.53
2018-06-28T10:38:31.835Z,46.77
2018-06-28T10:39:32.078Z,46.67
2018-06-28T10:40:32.316Z,46.58
2018-06-28T10:41:32.565Z,46.21
2018-06-28T10:42:32.790Z,45.53
2018-06-28T10:43:33.025Z,46.23
2018-06-28T10:44:33.262Z,45.43
2018-06-28T10:45:33.516Z,45.92
2018-06-28T10:46:33.733Z,46.11
2018-06-28T10:47:34.017Z,46.41
2018-06-28T10:48:34.218Z,46.01
2018-06-28T10:49:34.455Z,46.79
2018-06-28T10:50:34.783Z,45.94
2018-06-28T10:51:34.926Z,44.85
2018-06-28T10:52:35.167Z,45.75
2018-06-28T10:53:35.404Z,45.17
2018-06-28T10:54:35.643Z,45.45
2018-06-28T10:55:35.880Z,46.04
2018-06-28T10:56:36.121Z,44.87
2018-06-28T10:57:36.362Z,45.17
2018-06-28T10:58:36.595Z,44.27
2018-06-28T10:59:36.837Z,45.26
2018-06-28T11:00:37.072Z,44.31
2018-06-28T11:01:37.321Z,45.28
2018-06-28T11:02:37.543Z,44.21
2018-06-28T11:03:37.785Z,44.51
2018-06-28T11:04:38.022Z,44.79
2018-06-28T11:05:38.261Z,45.48
2018-06-28T11:06:38.498Z,45.97
2018-06-28T11:07:38.733Z,45.45
2018-06-28T11:08:38.969Z,46.15
2018-06-28T11:09:39.209Z,45.38
2018-06-28T11:10:39.446Z,45.75
2018-06-28T11:11:39.682Z,46.52
2018-06-28T11:12:39.926Z,46.23
2018-06-28T11:13:40.155Z,46.72
2018-06-28T11:14:40.394Z,47.11
2018-06-28T11:15:40.698Z,46.42
2018-06-28T11:16:40.876Z,46.60
2018-06-28T11:17:41.103Z,46.31
2018-06-28T11:18:41.434Z,46.69
2018-06-28T11:19:41.589Z,46.89
2018-06-28T11:20:41.827Z,46.98
2018-06-28T11:21:42.066Z,46.69
2018-06-28T11:22:42.305Z,46.77
2018-06-28T11:23:42.543Z,46.38
2018-06-28T11:24:42.781Z,46.58
2018-06-28T11:25:43.008Z,46.84
2018-06-28T11:26:43.336Z,47.23
2018-06-28T11:27:43.488Z,47.60
2018-06-28T11:28:43.724Z,47.79
2018-06-28T11:29:43.963Z,47.69
2018-06-28T11:30:44.199Z,48.66
2018-06-28T11:31:44.441Z,49.07
2018-06-28T11:32:44.679Z,48.80
2018-06-28T11:33:44.913Z,48.42
2018-06-28T11:34:45.149Z,48.03
2018-06-28T11:35:45.387Z,47.55
2018-06-28T11:36:45.635Z,47.76
2018-06-28T11:37:45.860Z,46.41
2018-06-28T11:38:46.100Z,45.94
2018-06-28T11:39:46.335Z,45.94
2018-06-28T11:40:46.572Z,45.67
2018-06-28T11:41:46.807Z,44.70
2018-06-28T11:42:47.069Z,43.82
2018-06-28T11:43:47.278Z,44.41
2018-06-28T11:44:47.515Z,44.99
2018-06-28T11:45:47.751Z,45.38
2018-06-28T11:46:47.992Z,44.68
2018-06-28T11:47:48.227Z,45.18
2018-06-28T11:48:48.462Z,44.48
2018-06-28T11:49:48.701Z,44.85
2018-06-28T11:50:48.937Z,45.31
2018-06-28T11:51:49.174Z,45.92
2018-06-28T11:52:49.414Z,45.53
2018-06-28T11:53:49.647Z,45.55
2018-06-28T11:54:49.889Z,45.17
2018-06-28T11:55:50.127Z,44.41
2018-06-28T11:56:50.362Z,44.41
2018-06-28T11:57:50.601Z,44.31
2018-06-28T11:58:50.842Z,44.21
2018-06-28T11:59:51.079Z,43.82
2018-06-28T12:00:51.312Z,44.04
2018-06-28T12:01:51.552Z,44.04
2018-06-28T12:02:51.785Z,42.87
2018-06-28T12:03:52.024Z,42.78
2018-06-28T12:04:52.257Z,43.07
2018-06-28T12:05:52.496Z,42.95
2018-06-28T12:06:52.735Z,43.71
2018-06-28T12:07:52.978Z,43.90
2018-06-28T12:08:53.210Z,43.61
2018-06-28T12:09:53.444Z,43.68
2018-06-28T12:10:53.682Z,44.09
2018-06-28T12:11:53.918Z,44.07
2018-06-28T12:12:54.154Z,44.19
2018-06-28T12:13:54.392Z,43.88
2018-06-28T12:14:54.627Z,43.98
2018-06-28T12:15:54.868Z,44.07
2018-06-28T12:16:55.105Z,44.37
2018-06-28T12:17:55.338Z,44.17
2018-06-28T12:18:55.576Z,44.56
2018-06-28T12:19:55.813Z,44.17
2018-06-28T12:20:56.049Z,43.98
2018-06-28T12:21:56.289Z,43.98
2018-06-28T12:22:56.529Z,43.78
2018-06-28T12:23:56.761Z,43.61
2018-06-28T12:24:56.998Z,44.21
2018-06-28T12:25:57.236Z,42.56
2018-06-28T12:26:57.474Z,42.29
2018-06-28T12:27:57.717Z,41.80
2018-06-28T12:28:57.947Z,41.80
2018-06-28T12:29:58.186Z,41.53
2018-06-28T12:30:58.487Z,41.22
2018-06-28T12:31:58.665Z,41.61
2018-06-28T12:32:58.902Z,41.51
2018-06-28T12:33:59.143Z,41.78
2018-06-28T12:34:59.382Z,41.98
2018-06-28T12:35:59.616Z,42.05
2018-06-28T12:36:59.846Z,42.35
2018-06-28T12:38:00.082Z,42.93
2018-06-28T12:39:00.320Z,42.83
2018-06-28T12:40:00.560Z,42.64
2018-06-28T12:41:00.833Z,42.83
2018-06-28T12:42:01.039Z,42.93
2018-06-28T12:43:01.273Z,42.83
2018-06-28T12:44:01.511Z,42.61
2018-06-28T12:45:01.845Z,42.74
2018-06-28T12:46:01.990Z,42.35
2018-06-28T12:47:02.228Z,42.56
2018-06-28T12:48:02.468Z,43.44
2018-06-28T12:49:02.701Z,42.68
2018-06-28T12:50:02.939Z,42.60
2018-06-28T12:51:03.177Z,40.56
2018-06-28T12:52:03.415Z,39.98
2018-06-28T12:53:03.652Z,40.56
2018-06-28T12:54:03.890Z,40.15
2018-06-28T12:55:04.128Z,40.54